Time;durP1;ratioP1;P1;durP2;ratioP2;P2;SDS_P1;SDS_P2;PMS_P1;PMS_P2;Temp;Humidity;BMP_temperature;BMP_pressure;BME280_temperature;BME280_humidity;BME280_pressure;Samples;Min_cycle;Max_cycle;Signal;HPM_P1;HPM_P2
2021/01/23 00:02:13;;;;;;;0.40;0.40;;;1.10;99.90;;;1.90;56.74;92397.69;5033160;28;20192;-68
2021/01/23 00:04:43;;;;;;;0.43;0.43;;;1.00;99.90;;;1.81;57.28;92394.75;5052665;28;20186;-68
2021/01/23 00:07:09;;;;;;;0.60;0.50;;;1.00;99.90;;;1.72;56.62;92405.88;5044137;28;20189;-67
2021/01/23 00:09:36;;;;;;;2.03;0.90;;;0.90;99.90;;;1.68;57.40;92408.19;5050270;28;20199;-68
2021/01/23 00:12:05;;;;;;;0.70;0.70;;;0.90;99.90;;;1.67;56.93;92406.63;5048760;28;20219;-67
2021/01/23 00:14:32;;;;;;;0.80;0.80;;;0.80;99.90;;;1.72;57.50;92424.16;5051229;28;20291;-67
2021/01/23 00:16:59;;;;;;;0.90;0.90;;;0.80;99.90;;;1.68;57.64;92428.31;5061504;28;20195;-68
2021/01/23 00:19:25;;;;;;;0.83;0.83;;;0.80;99.90;;;1.68;57.29;92436.16;5039550;28;20180;-68
2021/01/23 00:21:52;;;;;;;1.00;1.00;;;0.80;99.90;;;1.65;57.43;92440.03;5049261;28;20186;-67
2021/01/23 00:24:18;;;;;;;1.20;1.10;;;0.80;99.90;;;1.59;57.08;92448.84;5029542;28;20763;-68
2021/01/23 00:26:45;;;;;;;1.63;1.37;;;0.70;99.90;;;1.60;57.36;92466.09;5048876;28;20199;-67
2021/01/23 00:29:24;;;;;;;1.33;1.23;;;0.70;99.90;;;1.61;57.34;92475.50;5028539;28;20977;-68
2021/01/23 00:31:50;;;;;;;2.93;1.40;;;0.70;99.90;;;1.65;57.75;92473.97;5046953;28;20695;-68
2021/01/23 00:34:16;;;;;;;1.20;1.10;;;0.70;99.90;;;1.63;57.23;92483.06;5054303;28;20238;-68
2021/01/23 00:36:42;;;;;;;1.20;1.10;;;0.70;99.90;;;1.60;58.05;92491.41;5038155;28;20707;-68
2021/01/23 00:39:08;;;;;;;1.30;1.07;;;0.70;99.90;;;1.58;58.05;92496.84;5049671;28;20230;-68
2021/01/23 00:41:33;;;;;;;1.13;1.03;;;0.70;99.90;;;1.59;57.72;92508.09;5055278;28;20179;-68
2021/01/23 00:44:02;;;;;;;1.27;1.17;;;0.70;99.90;;;1.62;58.26;92516.22;5052729;28;20193;-68
2021/01/23 00:46:30;;;;;;;1.23;1.13;;;0.70;99.90;;;1.63;58.40;92524.84;5050021;28;20682;-68
2021/01/23 00:48:56;;;;;;;1.47;1.37;;;0.70;99.90;;;1.67;57.90;92528.56;5043756;28;20228;-67
2021/01/23 00:51:22;;;;;;;1.07;0.97;;;0.70;99.90;;;1.64;58.01;92529.03;5050737;28;20860;-68
2021/01/23 00:53:48;;;;;;;1.20;1.07;;;0.80;99.90;;;1.63;57.71;92543.13;5049234;28;20203;-67
2021/01/23 00:56:16;;;;;;;1.10;1.00;;;0.80;99.90;;;1.59;57.85;92536.81;5062332;28;20242;-68
2021/01/23 00:58:42;;;;;;;1.00;1.00;;;0.70;99.90;;;1.63;58.18;92548.34;5049654;28;20267;-67
2021/01/23 01:01:08;;;;;;;0.80;0.80;;;0.70;99.90;;;1.61;58.62;92559.03;5031709;28;20495;-68
2021/01/23 01:03:34;;;;;;;1.30;1.20;;;0.70;99.90;;;1.63;57.78;92564.81;5049807;28;20182;-68
2021/01/23 01:06:05;;;;;;;1.50;1.40;;;0.70;99.90;;;1.63;58.66;92564.00;5048229;28;20735;-68
2021/01/23 01:08:31;;;;;;;1.40;1.20;;;0.70;99.90;;;1.68;58.74;92574.53;5051089;28;20188;-67
2021/01/23 01:10:57;;;;;;;1.20;1.10;;;0.80;99.90;;;1.67;57.96;92571.13;5048515;28;20198;-67
2021/01/23 01:13:25;;;;;;;1.57;1.00;;;0.70;99.90;;;1.63;57.99;92580.47;5046665;28;20223;-67
2021/01/23 01:15:51;;;;;;;1.50;1.07;;;0.80;99.90;;;1.69;58.93;92579.50;5065619;28;20195;-67
2021/01/23 01:18:18;;;;;;;0.70;0.70;;;0.80;99.90;;;1.66;58.33;92587.81;5049449;28;20176;-67
2021/01/23 01:20:44;;;;;;;1.27;1.00;;;0.80;99.90;;;1.62;58.36;92585.91;5064238;28;20852;-67
2021/01/23 01:23:10;;;;;;;1.10;1.00;;;0.70;99.90;;;1.69;59.27;92599.59;5032912;28;20184;-68
2021/01/23 01:25:36;;;;;;;1.07;0.90;;;0.80;99.90;;;1.67;58.68;92606.88;5046617;28;20195;-67
2021/01/23 01:28:05;;;;;;;1.20;1.10;;;0.80;99.90;;;1.70;58.54;92609.00;5048004;28;20188;-67
2021/01/23 01:30:30;;;;;;;1.10;0.93;;;0.80;99.90;;;1.69;59.23;92610.81;5049365;28;20226;-67
2021/01/23 01:32:56;;;;;;;1.17;1.07;;;0.80;99.90;;;1.72;59.25;92605.09;5020080;28;20583;-68
2021/01/23 01:35:22;;;;;;;1.40;1.10;;;0.80;99.90;;;1.69;59.25;92600.38;5034807;28;20266;-68
2021/01/23 01:37:48;;;;;;;1.10;1.00;;;0.80;99.90;;;1.68;58.77;92608.47;5040576;28;20189;-68
2021/01/23 01:40:14;;;;;;;1.20;1.10;;;0.80;99.90;;;1.70;58.88;92609.78;5028218;28;20253;-67
2021/01/23 01:42:43;;;;;;;2.40;0.90;;;0.80;99.90;;;1.78;59.47;92625.03;5061997;28;20189;-69
2021/01/23 01:45:12;;;;;;;0.77;0.77;;;0.90;99.90;;;1.77;59.80;92626.06;5072100;28;20183;-68
2021/01/23 01:47:40;;;;;;;1.00;0.90;;;0.90;99.90;;;1.73;59.14;92624.97;5056567;28;20183;-69
2021/01/23 01:50:06;;;;;;;0.73;0.73;;;0.80;99.90;;;1.74;59.11;92634.41;5054092;28;20192;-69
2021/01/23 01:52:32;;;;;;;0.50;0.50;;;0.80;99.90;;;1.77;59.33;92618.25;5038992;28;20181;-68
2021/01/23 01:54:59;;;;;;;1.13;0.50;;;0.90;99.90;;;1.79;59.51;92631.84;5046231;28;20186;-68
2021/01/23 01:57:27;;;;;;;0.50;0.40;;;0.90;99.90;;;1.76;58.99;92629.72;5052002;28;20238;-68
2021/01/23 01:59:53;;;;;;;0.50;0.50;;;0.90;99.90;;;1.71;59.83;92624.44;5064672;28;20267;-68
2021/01/23 02:02:37;;;;;;;1.53;0.50;;;0.80;99.90;;;1.72;59.88;92633.03;5051702;28;20710;-68
2021/01/23 02:05:22;;;;;;;0.70;0.70;;;0.80;99.90;;;1.70;60.12;92625.47;5052629;28;20270;-68
2021/01/23 02:08:17;;;;;;;1.13;0.80;;;0.80;99.90;;;1.72;59.78;92633.03;5051819;28;20190;-67
2021/01/23 02:11:14;;;;;;;0.70;0.70;;;0.80;99.90;;;1.68;60.57;92634.56;5047012;28;20226;-68
2021/01/23 02:14:14;;;;;;;1.00;0.90;;;0.80;99.90;;;1.73;60.56;92637.25;5054404;28;20200;-68
2021/01/23 02:16:49;;;;;;;1.57;0.87;;;0.80;99.90;;;1.74;60.08;92637.00;5056044;28;20675;-68
2021/01/23 02:19:29;;;;;;;0.90;0.90;;;0.80;99.90;;;1.74;60.30;92650.06;5052470;28;20178;-68
2021/01/23 02:22:17;;;;;;;0.63;0.63;;;0.80;99.90;;;1.77;60.17;92656.63;5052260;28;20598;-68
2021/01/23 02:24:46;;;;;;;0.70;0.70;;;0.90;99.90;;;1.81;60.68;92655.09;5050110;28;20215;-68
2021/01/23 02:27:39;;;;;;;0.50;0.50;;;0.90;99.90;;;1.79;59.74;92663.19;5047112;28;20271;-68
2021/01/23 02:30:08;;;;;;;1.13;0.57;;;1.00;99.90;;;1.83;60.71;92655.66;5062100;28;20196;-68
2021/01/23 02:32:40;;;;;;;0.67;0.67;;;0.90;99.90;;;1.79;60.40;92659.75;5058854;28;20195;-68
2021/01/23 02:35:12;;;;;;;1.20;0.90;;;0.90;99.90;;;1.70;60.11;92658.63;5049187;28;20188;-69
2021/01/23 02:37:40;;;;;;;1.00;0.90;;;0.80;99.90;;;1.70;60.41;92664.63;5067562;28;20804;-68
2021/01/23 02:40:08;;;;;;;1.00;1.00;;;0.80;99.90;;;1.67;59.95;92670.34;5050942;28;20693;-68
2021/01/23 02:42:34;;;;;;;1.30;1.10;;;0.80;99.90;;;1.67;60.52;92675.56;5063190;28;20190;-68
2021/01/23 02:45:00;;;;;;;1.20;1.07;;;0.80;99.90;;;1.67;60.81;92672.94;5060598;28;20287;-68
2021/01/23 02:47:26;;;;;;;1.60;1.13;;;0.80;99.90;;;1.67;60.31;92672.94;5057440;28;20337;-68
2021/01/23 02:49:52;;;;;;;0.90;0.90;;;0.80;99.90;;;1.69;60.12;92681.31;5041791;28;20235;-68
2021/01/23 02:52:36;;;;;;;0.97;0.73;;;0.80;99.90;;;1.72;60.73;92678.22;5049213;28;20199;-68
2021/01/23 02:55:16;;;;;;;0.77;0.50;;;0.80;99.90;;;1.70;61.43;92684.72;5046132;28;20900;-68
2021/01/23 02:57:44;;;;;;;0.40;0.40;;;0.80;99.90;;;1.72;60.66;92683.44;5067218;28;20177;-68
2021/01/23 03:00:11;;;;;;;0.73;0.20;;;0.80;99.90;;;1.69;60.88;92686.53;5051168;28;20280;-68
2021/01/23 03:02:51;;;;;;;0.30;0.30;;;0.80;99.90;;;1.65;60.48;92698.47;5050816;28;20205;-68
2021/01/23 03:05:18;;;;;;;0.37;0.20;;;0.80;99.90;;;1.68;60.64;92697.25;5050840;28;20190;-68
2021/01/23 03:07:51;;;;;;;0.13;0.13;;;0.80;99.90;;;1.68;60.65;92702.47;5031281;28;20271;-68
2021/01/23 03:10:19;;;;;;;1.50;0.30;;;0.80;99.90;;;1.72;61.17;92698.31;5048610;28;20192;-68
2021/01/23 03:12:45;;;;;;;1.00;0.20;;;0.80;99.90;;;1.70;61.31;92708.22;5051630;28;20192;-68
2021/01/23 03:15:13;;;;;;;0.23;0.20;;;0.80;99.90;;;1.70;60.60;92705.59;5038000;28;20219;-68
2021/01/23 03:17:43;;;;;;;0.30;0.30;;;0.80;99.90;;;1.68;61.43;92711.06;5049591;28;20187;-68
2021/01/23 03:20:09;;;;;;;0.40;0.40;;;0.80;99.90;;;1.69;61.55;92714.47;5058227;28;20192;-68
2021/01/23 03:22:35;;;;;;;0.27;0.27;;;0.80;99.90;;;1.69;60.81;92714.47;5067392;28;20180;-69
2021/01/23 03:25:03;;;;;;;0.17;0.17;;;0.80;99.90;;;1.68;61.33;92726.72;5050726;28;20643;-69
2021/01/23 03:27:29;;;;;;;0.10;0.10;;;0.80;99.90;;;1.72;61.30;92719.19;5033203;28;20208;-70
2021/01/23 03:29:55;;;;;;;0.37;0.23;;;0.80;99.90;;;1.76;62.04;92720.31;5044562;28;20732;-68
2021/01/23 03:32:21;;;;;;;0.10;0.10;;;0.80;99.90;;;1.80;61.27;92722.22;5065924;28;20852;-68
2021/01/23 03:34:47;;;;;;;0.60;0.10;;;0.80;99.90;;;1.81;62.08;92725.63;5051145;28;20287;-68
2021/01/23 03:37:13;;;;;;;0.20;0.10;;;0.90;99.90;;;1.75;61.67;92724.75;5049481;28;20283;-68
2021/01/23 03:39:39;;;;;;;0.33;0.10;;;0.80;99.90;;;1.77;61.27;92737.56;5066932;28;20774;-68
2021/01/23 03:42:05;;;;;;;0.10;0.10;;;0.80;99.90;;;1.79;62.14;92735.50;5047605;28;20274;-67
2021/01/23 03:44:31;;;;;;;1.07;0.10;;;0.90;99.90;;;1.79;62.11;92735.50;5064369;28;20628;-68
2021/01/23 03:46:56;;;;;;;0.40;0.10;;;0.90;99.90;;;1.80;61.39;92743.09;5051418;28;20186;-68
2021/01/23 03:49:22;;;;;;;0.37;0.17;;;0.90;99.90;;;1.83;61.99;92734.78;5043346;28;20192;-68
2021/01/23 03:51:50;;;;;;;0.10;0.10;;;0.90;99.90;;;1.77;62.30;92742.78;5050993;28;20195;-68
2021/01/23 03:54:16;;;;;;;0.10;0.10;;;0.90;99.90;;;1.79;62.16;92735.50;5049567;28;20558;-68
2021/01/23 03:56:45;;;;;;;0.13;0.10;;;0.90;99.90;;;1.78;61.77;92724.25;5010643;28;20192;-68
2021/01/23 03:59:11;;;;;;;0.70;0.20;;;0.90;99.90;;;1.78;62.42;92742.53;5046066;28;20183;-68
2021/01/23 04:01:37;;;;;;;0.10;0.10;;;0.90;99.90;;;1.72;62.14;92717.38;5065699;28;20214;-68
2021/01/23 04:04:05;;;;;;;0.10;0.10;;;0.90;99.90;;;1.70;62.19;92736.94;5038679;28;20698;-68
2021/01/23 04:06:31;;;;;;;0.70;0.10;;;0.90;99.90;;;1.70;62.21;92731.72;5045683;28;20181;-68
2021/01/23 04:08:57;;;;;;;0.10;0.10;;;0.80;99.90;;;1.74;62.48;92730.22;5029985;28;20265;-68
2021/01/23 04:11:23;;;;;;;0.10;0.10;;;0.90;99.90;;;1.69;61.79;92730.13;5050254;28;20199;-67
2021/01/23 04:13:52;;;;;;;0.40;0.10;;;0.80;99.90;;;1.72;62.59;92716.59;5048027;28;20345;-68
2021/01/23 04:16:20;;;;;;;0.30;0.30;;;0.80;99.90;;;1.71;62.58;92717.66;5076960;28;20282;-68
2021/01/23 04:18:46;;;;;;;0.20;0.20;;;0.90;99.90;;;1.70;61.93;92716.06;5034405;28;20190;-68
2021/01/23 04:21:15;;;;;;;0.47;0.20;;;0.80;99.90;;;1.60;62.68;92716.69;5050354;28;20289;-68
2021/01/23 04:23:40;;;;;;;0.80;0.10;;;0.70;99.90;;;1.66;62.69;92709.72;5049897;28;20187;-68
2021/01/23 04:26:08;;;;;;;0.40;0.20;;;0.80;99.90;;;1.64;61.85;92704.75;5050218;28;20191;-68
2021/01/23 04:28:34;;;;;;;0.40;0.10;;;0.80;99.90;;;1.67;61.83;92701.66;5044831;28;20276;-68
2021/01/23 04:31:01;;;;;;;0.63;0.20;;;0.80;99.90;;;1.65;62.45;92703.72;5040258;28;20272;-68
2021/01/23 04:33:26;;;;;;;0.43;0.20;;;0.80;99.90;;;1.63;62.96;92723.25;5050574;28;20917;-68
2021/01/23 04:35:52;;;;;;;0.23;0.17;;;0.70;99.90;;;1.61;62.16;92702.63;5055893;28;20219;-68
2021/01/23 04:38:18;;;;;;;0.20;0.20;;;0.80;99.90;;;1.59;62.10;92712.50;5049525;28;20966;-67
2021/01/23 04:40:44;;;;;;;0.10;0.10;;;0.70;99.90;;;1.65;62.39;92708.94;5044502;28;20192;-68
2021/01/23 04:43:10;;;;;;;0.63;0.10;;;0.70;99.90;;;1.60;62.27;92713.28;5040678;28;20196;-69
2021/01/23 04:45:36;;;;;;;0.60;0.30;;;0.70;99.90;;;1.61;62.95;92705.25;5049174;28;20192;-68
2021/01/23 04:48:02;;;;;;;0.30;0.30;;;0.70;99.90;;;1.62;62.50;92701.56;5054217;28;20187;-68
2021/01/23 04:50:28;;;;;;;0.20;0.20;;;0.70;99.90;;;1.63;62.05;92703.16;5050709;28;20192;-68
2021/01/23 04:52:54;;;;;;;0.20;0.20;;;0.70;99.90;;;1.66;63.25;92701.88;5049612;28;20188;-68
2021/01/23 04:55:21;;;;;;;0.50;0.40;;;0.80;99.90;;;1.64;62.72;92706.56;5048535;28;20201;-68
2021/01/23 04:57:47;;;;;;;0.30;0.30;;;0.70;99.90;;;1.58;63.05;92710.16;5062918;28;20176;-68
2021/01/23 05:00:16;;;;;;;0.40;0.30;;;0.80;99.90;;;1.63;63.37;92718.03;5046858;28;20184;-68
2021/01/23 05:02:42;;;;;;;0.40;0.30;;;0.80;99.90;;;1.61;62.81;92715.69;5049030;28;20188;-68
2021/01/23 05:05:08;;;;;;;0.30;0.30;;;0.70;99.90;;;1.62;63.14;92708.63;5037148;28;20194;-68
2021/01/23 05:07:39;;;;;;;0.40;0.40;;;0.80;99.90;;;1.59;63.13;92709.88;5068172;28;20296;-68
2021/01/23 05:10:23;;;;;;;0.30;0.27;;;0.80;99.90;;;1.64;62.91;92714.41;5054235;28;20234;-68
2021/01/23 05:12:52;;;;;;;0.30;0.30;;;0.80;99.90;;;1.58;62.94;92713.53;5032043;28;20192;-68
2021/01/23 05:15:28;;;;;;;0.30;0.30;;;0.70;99.90;;;1.51;63.13;92711.06;5049484;28;20185;-68
2021/01/23 05:18:06;;;;;;;0.43;0.40;;;0.70;99.90;;;1.50;62.78;92721.78;5037190;28;20234;-68
2021/01/23 05:20:52;;;;;;;0.30;0.30;;;0.70;99.90;;;1.53;62.95;92727.31;5062280;28;20171;-68
2021/01/23 05:23:30;;;;;;;0.37;0.37;;;0.70;99.90;;;1.57;62.60;92726.81;5038150;28;20183;-68
2021/01/23 05:25:58;;;;;;;0.40;0.40;;;0.80;99.90;;;1.55;63.63;92711.38;5055945;28;20278;-68
2021/01/23 05:28:38;;;;;;;0.87;0.60;;;0.80;99.90;;;1.60;63.77;92727.16;5065110;28;20897;-67
2021/01/23 05:31:07;;;;;;;0.50;0.50;;;0.80;99.90;;;1.63;63.58;92720.66;5046009;28;20216;-68
2021/01/23 05:33:39;;;;;;;1.10;0.47;;;0.80;99.90;;;1.61;63.73;92718.28;5050702;28;20701;-68
2021/01/23 05:36:11;;;;;;;0.60;0.60;;;0.80;99.90;;;1.67;63.76;92721.75;5038603;28;20215;-68
2021/01/23 05:38:40;;;;;;;1.47;0.60;;;0.90;99.90;;;1.66;63.36;92723.56;5052060;28;20259;-67
2021/01/23 05:41:10;;;;;;;0.70;0.40;;;0.90;99.90;;;1.70;63.97;92716.84;5036448;28;20180;-68
2021/01/23 05:43:38;;;;;;;2.57;0.50;;;0.90;99.90;;;1.69;63.46;92725.69;5049026;28;20191;-68
2021/01/23 05:46:12;;;;;;;0.70;0.60;;;0.90;99.90;;;1.67;63.63;92727.78;5065500;28;20234;-69
2021/01/23 05:48:48;;;;;;;1.50;0.77;;;0.90;99.90;;;1.68;63.65;92731.19;5053035;28;20252;-68
2021/01/23 05:51:16;;;;;;;1.03;0.70;;;0.90;99.90;;;1.75;64.29;92710.88;5049115;28;20207;-68
2021/01/23 05:53:42;;;;;;;0.90;0.70;;;1.00;99.90;;;1.83;63.38;92711.28;5049635;28;20667;-68
2021/01/23 05:56:09;;;;;;;0.60;0.60;;;1.00;99.90;;;1.77;63.61;92712.25;5059793;28;20187;-69
2021/01/23 05:58:43;;;;;;;1.47;0.93;;;1.00;99.90;;;1.78;63.96;92713.81;5052081;28;20181;-68
2021/01/23 06:01:21;;;;;;;0.80;0.77;;;1.00;99.90;;;1.77;63.45;92707.03;5051435;28;20639;-68
2021/01/23 06:03:52;;;;;;;1.03;0.67;;;1.00;99.90;;;1.82;63.71;92704.47;5044206;28;20603;-68
2021/01/23 06:06:18;;;;;;;1.40;0.70;;;1.10;99.90;;;1.88;63.52;92705.34;5064706;28;20259;-68
2021/01/23 06:08:46;;;;;;;0.60;0.60;;;1.10;99.90;;;1.78;64.31;92708.59;5048485;28;20188;-69
2021/01/23 06:11:20;;;;;;;0.90;0.70;;;1.00;99.90;;;1.76;63.50;92700.22;5050269;28;20279;-68
2021/01/23 06:13:56;;;;;;;3.43;0.90;;;1.00;99.90;;;1.66;63.54;92702.69;5065090;28;20674;-69
2021/01/23 06:16:34;;;;;;;5.87;1.10;;;0.90;99.90;;;1.64;63.87;92707.38;5051338;28;20176;-68
2021/01/23 06:19:05;;;;;;;2.63;1.50;;;0.80;99.90;;;1.60;63.85;92698.44;5071045;28;20248;-69
2021/01/23 06:21:43;;;;;;;2.27;1.30;;;0.80;99.90;;;1.59;63.67;92719.53;5066126;28;20179;-68
2021/01/23 06:24:15;;;;;;;2.30;0.90;;;0.80;99.90;;;1.60;63.84;92702.84;5057124;28;20184;-68
2021/01/23 06:26:53;;;;;;;9.77;1.30;;;0.80;99.90;;;1.52;63.89;92711.88;5041389;28;20195;-68
2021/01/23 06:29:42;;;;;;;2.13;1.40;;;0.70;99.90;;;1.48;64.13;92698.50;5070431;28;20547;-68
2021/01/23 06:32:13;;;;;;;4.73;1.50;;;0.70;99.90;;;1.50;64.70;92706.13;5033345;28;20253;-68
2021/01/23 06:34:47;;;;;;;3.33;1.60;;;0.70;99.90;;;1.49;63.96;92689.66;5059687;28;20202;-68
2021/01/23 06:37:33;;;;;;;1.83;1.37;;;0.80;99.90;;;1.44;64.16;92701.84;5051145;28;20210;-68
2021/01/23 06:40:10;;;;;;;1.90;1.30;;;0.70;99.90;;;1.41;63.91;92697.88;5055446;28;20189;-68
2021/01/23 06:42:49;;;;;;;2.50;1.50;;;0.70;99.90;;;1.35;64.88;92700.66;5053341;28;20215;-68
2021/01/23 06:45:20;;;;;;;1.40;1.30;;;0.60;99.90;;;1.39;64.86;92694.72;5051896;28;20588;-68
2021/01/23 06:47:57;;;;;;;3.13;1.33;;;0.60;99.90;;;1.32;64.00;92699.31;5050611;28;20188;-68
2021/01/23 06:50:41;;;;;;;3.27;1.60;;;0.60;99.90;;;1.31;64.63;92695.09;5048761;28;20196;-67
2021/01/23 06:53:14;;;;;;;2.47;1.13;;;0.60;99.90;;;1.24;64.15;92685.88;5043593;28;20208;-68
2021/01/23 06:55:54;;;;;;;2.60;2.30;;;0.50;99.90;;;1.19;64.63;92699.63;5052087;28;20586;-68
2021/01/23 06:58:28;;;;;;;1.80;1.70;;;0.40;99.90;;;1.27;64.73;92693.22;5021216;28;20177;-68
2021/01/23 07:00:59;;;;;;;2.33;1.50;;;0.50;99.90;;;1.32;64.36;92690.69;5050884;28;20183;-68
2021/01/23 07:03:30;;;;;;;1.50;1.30;;;0.50;99.90;;;1.34;64.76;92691.25;5051216;28;20674;-70
2021/01/23 07:06:02;;;;;;;1.90;1.57;;;0.50;99.90;;;1.29;64.04;92691.16;5050273;28;20739;-67
2021/01/23 07:08:34;;;;;;;3.43;1.60;;;0.50;99.90;;;1.32;64.55;92691.47;5050470;28;20184;-68
2021/01/23 07:11:17;;;;;;;1.83;1.60;;;0.50;99.90;;;1.27;64.72;92682.78;5051344;28;20537;-68
2021/01/23 07:14:08;;;;;;;5.10;1.50;;;0.50;99.90;;;1.28;64.38;92687.75;5048523;28;20253;-68
2021/01/23 07:16:37;;;;;;;1.53;1.40;;;0.50;99.90;;;1.25;64.65;92682.22;5049983;28;20176;-68
2021/01/23 07:19:08;;;;;;;5.60;1.53;;;0.50;99.90;;;1.31;64.67;92686.53;5050882;28;20180;-68
2021/01/23 07:21:40;;;;;;;3.10;1.77;;;0.50;99.90;;;1.29;65.07;92681.53;5046422;28;20183;-68
2021/01/23 07:24:10;;;;;;;2.90;2.00;;;0.50;99.90;;;1.36;65.28;92676.94;5047978;28;20188;-68
2021/01/23 07:26:37;;;;;;;6.83;2.37;;;0.60;99.90;;;1.47;65.04;92670.06;5037058;28;20192;-68
2021/01/23 07:29:03;;;;;;;2.50;1.83;;;0.70;99.90;;;1.46;65.15;92669.25;5051982;28;20195;-67
2021/01/23 07:31:32;;;;;;;8.23;2.57;;;0.70;99.90;;;1.48;64.96;92659.34;5057936;28;20258;-67
2021/01/23 07:34:12;;;;;;;4.00;2.83;;;0.80;99.90;;;1.55;65.10;92672.25;5058302;28;20202;-67
2021/01/23 07:36:43;;;;;;;5.23;2.97;;;0.70;99.90;;;1.64;64.61;92665.59;5031612;28;20180;-68
2021/01/23 07:39:15;;;;;;;5.00;2.70;;;0.80;99.90;;;1.72;64.77;92667.78;5036169;28;20184;-67
2021/01/23 07:41:54;;;;;;;5.83;2.47;;;0.90;99.90;;;1.77;64.96;92660.03;5045585;28;20643;-67
2021/01/23 07:44:25;;;;;;;4.53;2.07;;;1.00;99.90;;;1.83;65.01;92661.66;5046838;28;20193;-68
2021/01/23 07:46:52;;;;;;;7.00;2.37;;;1.10;99.90;;;1.95;64.94;92659.72;5046094;28;20231;-68
2021/01/23 07:49:23;;;;;;;9.43;2.63;;;1.10;99.90;;;2.01;65.78;92655.38;5028890;28;20195;-68
2021/01/23 07:51:50;;;;;;;4.90;2.10;;;1.20;99.90;;;1.99;65.96;92652.19;5030049;28;20652;-69
2021/01/23 07:54:16;;;;;;;6.27;2.87;;;1.20;99.90;;;2.02;64.84;92654.31;5046626;28;20208;-68
2021/01/23 07:56:58;;;;;;;6.03;2.20;;;1.20;99.90;;;2.08;65.54;92646.28;5046678;28;20218;-68
2021/01/23 07:59:44;;;;;;;3.63;2.17;;;1.30;99.90;;;2.10;65.48;92647.88;5054097;28;20180;-69
2021/01/23 08:02:10;;;;;;;5.53;2.17;;;1.30;99.90;;;2.16;65.33;92654.75;5055923;28;20208;-69
2021/01/23 08:04:39;;;;;;;5.50;2.50;;;1.50;99.90;;;2.26;65.62;92641.78;5048848;28;20180;-68
2021/01/23 08:07:31;;;;;;;4.43;2.10;;;1.60;99.90;;;2.42;65.14;92648.75;5030181;28;20184;-68
2021/01/23 08:10:14;;;;;;;5.33;2.23;;;1.70;99.90;;;2.54;65.53;92667.72;5060381;28;20184;-68
2021/01/23 08:13:00;;;;;;;3.17;1.63;;;1.80;99.90;;;2.75;64.99;92645.19;5043030;28;20200;-68
2021/01/23 08:15:40;;;;;;;6.07;1.77;;;2.00;99.90;;;2.72;66.14;92641.22;5044219;28;20677;-68
2021/01/23 08:18:17;;;;;;;4.20;2.00;;;2.10;99.90;;;2.84;65.88;92639.25;5064494;28;20183;-68
2021/01/23 08:20:46;;;;;;;3.60;1.70;;;2.20;99.90;;;3.09;65.91;92630.81;5060626;28;20186;-68
2021/01/23 08:23:15;;;;;;;4.37;1.70;;;2.40;99.90;;;3.45;65.39;92624.81;5041037;28;20196;-68
2021/01/23 08:25:56;;;;;;;3.20;1.50;;;2.70;99.90;;;3.59;65.41;92620.69;5046682;28;20188;-68
2021/01/23 08:28:43;;;;;;;3.57;1.30;;;2.90;99.90;;;3.66;65.46;92640.66;5046535;28;20202;-68
2021/01/23 08:31:21;;;;;;;2.43;1.20;;;3.10;99.90;;;4.05;65.67;92647.94;5059289;28;20203;-67
2021/01/23 08:33:54;;;;;;;3.20;1.43;;;3.30;99.90;;;4.45;66.10;92628.13;5037272;28;20256;-67
2021/01/23 08:36:21;;;;;;;2.83;1.83;;;3.70;99.90;;;4.56;65.82;92619.25;5060567;28;20845;-67
2021/01/23 08:39:06;;;;;;;4.10;1.60;;;4.00;99.90;;;4.72;65.66;92631.34;5047752;28;20215;-68
2021/01/23 08:41:34;;;;;;;3.43;2.07;;;4.20;99.90;;;4.99;66.09;92633.75;5062987;28;21729;-67
2021/01/23 08:44:00;;;;;;;4.27;2.00;;;4.40;99.90;;;5.28;65.54;92624.31;5044877;28;20280;-67
2021/01/23 08:46:26;;;;;;;2.90;1.40;;;4.70;99.90;;;5.57;65.57;92593.03;5029031;28;20584;-67
2021/01/23 08:48:52;;;;;;;2.63;1.30;;;5.00;99.90;;;5.87;66.29;92600.88;5063766;28;20186;-68
2021/01/23 08:51:18;;;;;;;1.53;1.30;;;5.20;99.90;;;5.76;66.18;92586.13;5044968;28;20238;-70
2021/01/23 08:53:44;;;;;;;2.10;1.70;;;5.30;99.90;;;5.39;66.14;92585.69;5047447;28;20216;-70
2021/01/23 08:56:15;;;;;;;3.33;1.80;;;5.10;99.90;;;5.16;65.46;92593.06;5047186;28;20190;-69
2021/01/23 08:58:42;;;;;;;3.20;2.20;;;4.90;99.90;;;5.77;65.52;92597.44;5039888;28;20633;-70
2021/01/23 09:01:08;;;;;;;3.80;2.10;;;5.10;99.90;;;6.36;65.41;92608.03;5046840;28;20219;-68
2021/01/23 09:03:34;;;;;;;4.17;2.13;;;5.60;99.90;;;7.16;66.08;92610.19;5046035;28;20620;-68
2021/01/23 09:06:00;;;;;;;6.13;2.40;;;6.30;99.90;;;7.91;65.96;92597.41;5047045;28;20186;-69
2021/01/23 09:08:26;;;;;;;4.23;1.90;;;7.00;99.90;;;8.23;66.27;92589.63;5045479;28;20275;-70
2021/01/23 09:10:52;;;;;;;2.97;2.10;;;7.50;99.90;;;8.61;66.27;92582.59;5043381;28;20185;-69
2021/01/23 09:13:18;;;;;;;3.80;2.00;;;8.10;99.90;;;8.12;65.48;92576.88;5045367;28;20265;-69
2021/01/23 09:15:49;;;;;;;3.57;1.90;;;8.10;99.90;;;8.00;65.34;92561.41;5045623;28;20283;-68
2021/01/23 09:18:15;;;;;;;3.17;1.90;;;8.20;99.90;;;6.87;65.83;92540.88;5040243;28;20654;-68
2021/01/23 09:20:41;;;;;;;6.80;2.10;;;7.30;99.90;;;7.37;65.65;92581.03;5050024;28;20259;-69
2021/01/23 09:23:07;;;;;;;3.80;1.80;;;7.40;99.90;;;7.59;65.73;92533.91;5048384;28;20194;-68
2021/01/23 09:25:32;;;;;;;3.17;2.03;;;7.60;99.90;;;7.38;65.41;92538.63;5047630;28;20695;-69
2021/01/23 09:28:04;;;;;;;2.57;1.80;;;7.50;99.90;;;7.42;65.60;92544.88;5044557;28;20210;-69
2021/01/23 09:30:30;;;;;;;2.43;1.47;;;7.50;99.90;;;7.14;65.95;92538.56;5043155;28;20234;-68
2021/01/23 09:32:55;;;;;;;1.93;1.50;;;7.30;99.90;;;6.91;65.13;92533.22;5036487;28;20194;-68
2021/01/23 09:35:21;;;;;;;3.27;1.70;;;7.00;99.90;;;6.75;64.79;92531.78;5015347;28;20279;-69
2021/01/23 09:37:47;;;;;;;2.07;1.57;;;6.90;99.90;;;6.82;65.40;92525.09;5063335;28;20203;-69
2021/01/23 09:40:20;;;;;;;1.77;1.13;;;6.70;99.90;;;6.37;64.73;92497.28;5055845;28;20700;-69
2021/01/23 09:42:46;;;;;;;1.30;1.20;;;6.50;99.90;;;6.24;65.20;92528.66;5047110;28;20288;-70
2021/01/23 09:45:15;;;;;;;1.60;1.00;;;6.10;99.90;;;6.14;65.52;92526.88;5043310;28;20198;-71
2021/01/23 09:47:43;;;;;;;1.47;1.10;;;6.10;99.90;;;6.28;64.70;92540.22;5050484;28;20204;-72
2021/01/23 09:50:13;;;;;;;2.23;1.10;;;6.20;99.90;;;6.42;65.01;92539.31;5043863;28;20202;-71
2021/01/23 09:52:39;;;;;;;1.20;0.90;;;6.40;99.90;;;6.49;64.71;92531.13;5043950;28;20606;-72
2021/01/23 09:55:06;;;;;;;1.80;1.20;;;6.50;99.90;;;6.78;65.13;92529.38;5046319;28;20973;-72
2021/01/23 09:57:32;;;;;;;1.80;1.30;;;6.70;99.90;;;7.01;65.54;92522.59;5030947;28;20271;-69
2021/01/23 09:59:58;;;;;;;3.23;1.20;;;6.90;99.90;;;7.12;64.94;92519.59;5046857;28;20651;-69
2021/01/23 10:02:25;;;;;;;1.43;1.30;;;7.00;99.90;;;7.31;64.95;92524.19;5029171;28;20204;-71
2021/01/23 10:04:51;;;;;;;2.40;1.37;;;7.20;99.90;;;7.37;64.58;92509.88;5050054;28;20204;-73
2021/01/23 10:07:16;;;;;;;3.83;1.67;;;7.30;99.90;;;7.56;65.63;92510.72;5029870;28;20199;-71
2021/01/23 10:09:42;;;;;;;3.63;1.90;;;7.50;99.90;;;7.89;65.33;92509.84;5049107;28;20698;-71
2021/01/23 10:12:11;;;;;;;4.60;2.27;;;7.90;99.90;;;8.06;65.40;92481.13;5049942;28;20883;-72
2021/01/23 10:14:39;;;;;;;4.87;2.77;;;8.10;99.90;;;8.10;64.97;92484.00;5025212;28;20197;-72
2021/01/23 10:17:05;;;;;;;4.73;2.00;;;8.20;99.90;;;7.96;64.69;92483.91;5062072;28;20196;-72
2021/01/23 10:19:31;;;;;;;5.53;2.00;;;8.20;99.90;;;7.86;65.01;92480.59;5045180;28;20189;-71
2021/01/23 10:22:00;;;;;;;2.80;1.97;;;8.10;99.90;;;7.86;65.02;92488.50;5046143;28;20631;-73
2021/01/23 10:24:31;;;;;;;2.83;2.00;;;8.10;99.90;;;7.94;64.80;92472.06;5049580;28;20918;-71
2021/01/23 10:26:59;;;;;;;2.20;1.80;;;8.20;99.90;;;7.97;64.52;92467.00;5050811;28;20188;-71
2021/01/23 10:29:27;;;;;;;4.33;2.70;;;8.30;99.90;;;8.11;64.39;92459.19;5031129;28;20219;-72
2021/01/23 10:31:53;;;;;;;2.20;1.80;;;8.30;99.90;;;8.00;64.64;92434.00;5048324;28;20221;-70
2021/01/23 10:34:22;;;;;;;2.83;2.10;;;8.30;99.90;;;7.95;64.21;92463.88;5030367;28;20210;-69
2021/01/23 10:36:48;;;;;;;4.27;2.10;;;8.20;99.90;;;7.58;64.84;92464.59;5046956;28;20699;-69
2021/01/23 10:39:14;;;;;;;3.60;2.10;;;8.00;99.90;;;7.45;65.18;92459.22;5062877;28;20275;-70
2021/01/23 10:41:40;;;;;;;4.07;2.97;;;7.90;99.90;;;7.35;64.40;92454.06;5048799;28;20256;-70
2021/01/23 10:44:06;;;;;;;5.20;4.70;;;7.70;99.90;;;7.74;64.82;92458.06;5048656;28;20203;-71
2021/01/23 10:46:37;;;;;;;7.03;6.00;;;7.80;99.90;;;7.76;64.79;92452.50;5033355;28;20190;-70